Meteo Giornale » Osservazioni meteo Gran Bretagna » Coningsby Royal

ore: 15:50 - Osservazioni Meteo Coningsby Royal
Lat. 53° 5' N Lon. 0° 10' W Alt. 7 metri s.l.m.

nuvoloso Europe/London

22 °C

Nuvoloso

Temp. 24 Ore

10 °C

23 °C

Ovest

16.7 Km/h

Dew point 15 °C

Umidità 64 %

Visibilità  10 Km

Il sole sorge alle ore 06:48

Il sole tramonta alle ore 18:56

Data e Ora Cielo e Fenomeni T °C DP °C Um. % Pres. hPa Vis. km Vento km/h
Oggi h: 15:50 nuvoloso Nuvoloso 22 15 64 1012 10 O 16.7
Oggi h: 15:20 nuvoloso Nuvoloso 22 15 64 1012 10 O 18.5
Oggi h: 14:50 poco_nuvoloso Poco Nuvoloso 23 15 60 1012 10 O 18.5
Oggi h: 13:20 molto_nuvoloso Molto Nuvoloso 20 14 68 1012 10 O/SO 22.2
Oggi h: 12:50 molto_nuvoloso Molto Nuvoloso 20 14 68 1012 10 O/SO 24
Oggi h: 12:20 molto_nuvoloso Molto Nuvoloso 20 13 64 1012 10 O/SO 20.3
Oggi h: 11:50 molto_nuvoloso Molto Nuvoloso 19 13 68 1013 10 O/SO 18.5
Oggi h: 11:20 molto_nuvoloso Molto Nuvoloso 18 12 67 1013 10 O/SO 18.5
Oggi h: 10:50 molto_nuvoloso Molto Nuvoloso 18 12 67 1013 10 O/SO 20.3
Oggi h: 10:20 sereno Sereno 17 12 72 1013 10 O/SO 18.5
Oggi h: 09:50 sereno Sereno 16 12 77 1013 10 SO 18.5
Oggi h: 09:22 sereno Sereno 15 12 82 1013 10 S/SO 14.8
Oggi h: 07:50 nuvoloso Nuvoloso 11 11 100 1014 10 SO 11.1
Oggi h: 06:50 sereno Sereno 10 10 100 1014 10 N 5.5
Oggi h: 05:50 sereno Sereno 11 10 93 1014 10 S/SO 7.4
Oggi h: 04:50 sereno Sereno 12 11 93 1014 10 SO 7.4
Oggi h: 03:50 poco_nuvoloso Poco Nuvoloso 12 11 93 1015 10 SO 7.4
Oggi h: 02:50 molto_nuvoloso Molto Nuvoloso 12 11 93 1015 10 S 9.3
Oggi h: 01:50 sereno Sereno 13 11 87 1016 10 N 3.7
Oggi h: 00:50 sereno Sereno 14 12 87 1017 10 O/SO 11.1
Ieri h: 23:50 sereno Sereno 13 11 87 1017 10 O 11.1
Ieri h: 22:50 sereno Sereno 13 11 87 1017 10 O/SO 7.4
Ieri h: 22:20 sereno Sereno 15 12 82 1017 10 O/NO 9.3
Ieri h: 21:50 sereno Sereno 15 12 82 1017 10 NO 7.4
Ieri h: 21:20 sereno Sereno 15 12 82 1017 10 NO 11.1
Ieri h: 20:50 poco_nuvoloso Poco Nuvoloso 16 12 77 1017 10 O/NO 11.1
Ieri h: 20:20 poco_nuvoloso Poco Nuvoloso 16 12 77 1017 10 NO 14.8
Ieri h: 19:50 poco_nuvoloso Poco Nuvoloso 16 12 77 1017 10 NO 16.7
Ieri h: 19:20 poco_nuvoloso Poco Nuvoloso 17 12 72 1017 10 N/NO 9.3
Ieri h: 18:20 poco_nuvoloso Poco Nuvoloso 18 12 67 1017 10 NO 20.3
Ieri h: 17:50 poco_nuvoloso Poco Nuvoloso 19 12 63 1017 10 NO 24
Ieri h: 17:20 poco_nuvoloso Poco Nuvoloso 20 12 59 1017 10 O/NO 25.9
Ieri h: 16:50 poco_nuvoloso Poco Nuvoloso 20 12 59 1016 10 O/NO 22.2